createdAt,value
2019-06-01T00:00:12.440Z,4.33
2019-06-01T00:02:45.262Z,6.42
2019-06-01T00:05:12.975Z,4.47
2019-06-01T00:07:42.845Z,4.33
2019-06-01T00:10:11.673Z,4.57
2019-06-01T00:12:41.329Z,4.47
2019-06-01T00:15:10.289Z,4.08
2019-06-01T00:17:39.610Z,4.62
2019-06-01T00:20:08.327Z,4.28
2019-06-01T00:22:36.870Z,4.53
2019-06-01T00:25:05.834Z,4.90
2019-06-01T00:27:34.495Z,4.42
2019-06-01T00:30:03.185Z,5.22
2019-06-01T00:32:32.838Z,5.30
2019-06-01T00:35:01.402Z,5.37
2019-06-01T00:37:31.294Z,4.83
2019-06-01T00:39:59.842Z,5.67
2019-06-01T00:42:28.867Z,5.17
2019-06-01T00:44:57.479Z,5.03
2019-06-01T00:47:25.960Z,5.30
2019-06-01T00:49:55.565Z,5.80
2019-06-01T00:52:24.046Z,4.92
2019-06-01T00:54:53.624Z,5.08
2019-06-01T00:57:22.418Z,4.70
2019-06-01T00:59:53.167Z,4.87
2019-06-01T01:02:21.378Z,4.80
2019-06-01T01:04:59.493Z,5.10
2019-06-01T01:07:27.995Z,5.10
2019-06-01T01:09:56.550Z,5.70
2019-06-01T01:12:25.064Z,5.60
2019-06-01T01:14:53.732Z,5.65
2019-06-01T01:17:22.217Z,5.90
2019-06-01T01:19:51.883Z,5.35
2019-06-01T01:22:20.486Z,5.72
2019-06-01T01:24:50.415Z,5.13
2019-06-01T01:27:19.181Z,5.12
2019-06-01T01:29:48.886Z,5.90
2019-06-01T01:32:17.566Z,4.83
2019-06-01T01:34:47.300Z,4.90
2019-06-01T01:37:15.909Z,5.12
2019-06-01T01:39:44.368Z,5.90
2019-06-01T01:42:12.929Z,5.10
2019-06-01T01:44:41.481Z,6.05
2019-06-01T01:47:10.916Z,5.62
2019-06-01T01:49:39.489Z,5.22
2019-06-01T01:52:08.070Z,5.45
2019-06-01T01:57:17.365Z,5.20
2019-06-01T01:59:45.830Z,5.37
2019-06-01T02:02:14.314Z,4.95
2019-06-01T02:04:42.877Z,5.05
2019-06-01T02:07:11.350Z,5.72
2019-06-01T02:09:39.823Z,6.25
2019-06-01T02:12:08.493Z,5.53
2019-06-01T02:14:38.561Z,5.28
2019-06-01T02:17:07.089Z,6.28
2019-06-01T02:19:36.583Z,6.37
2019-06-01T02:22:05.177Z,9.10
2019-06-01T02:24:33.669Z,6.85
2019-06-01T02:27:03.315Z,5.90
2019-06-01T02:29:31.977Z,5.58
2019-06-01T02:32:01.771Z,5.45
2019-06-01T02:34:30.671Z,5.83
2019-06-01T02:37:00.267Z,5.97
2019-06-01T02:39:28.971Z,6.35
2019-06-01T02:41:59.038Z,7.42
2019-06-01T02:44:28.686Z,6.22
2019-06-01T02:46:57.172Z,5.70
2019-06-01T02:49:25.758Z,5.90
2019-06-01T02:51:55.098Z,5.80
2019-06-01T02:54:23.770Z,6.03
2019-06-01T02:56:52.249Z,6.22
2019-06-01T02:59:20.921Z,6.10
2019-06-01T03:01:57.149Z,5.70
2019-06-01T03:04:19.920Z,5.70
2019-06-01T03:06:50.010Z,5.03
2019-06-01T03:09:20.046Z,5.40
2019-06-01T03:11:49.971Z,8.13
2019-06-01T03:14:18.886Z,6.30
2019-06-01T03:16:48.464Z,5.20
2019-06-01T03:19:18.614Z,5.78
2019-06-01T03:21:48.946Z,5.60
2019-06-01T03:24:18.906Z,5.42
2019-06-01T03:26:47.438Z,5.90
2019-06-01T03:29:17.358Z,5.97
2019-06-01T03:31:46.232Z,6.45
2019-06-01T03:34:14.914Z,5.25
2019-06-01T03:36:43.470Z,5.70
2019-06-01T03:39:13.092Z,5.60
2019-06-01T03:41:42.142Z,5.67
2019-06-01T03:44:10.704Z,5.30
2019-06-01T03:46:39.273Z,5.50
2019-06-01T03:49:07.808Z,6.00
2019-06-01T03:51:36.280Z,5.87
2019-06-01T03:54:06.449Z,5.95
2019-06-01T03:56:35.035Z,6.70
2019-06-01T03:59:04.978Z,6.25
2019-06-01T04:01:33.597Z,6.40
2019-06-01T04:04:03.057Z,6.80
2019-06-01T04:06:31.714Z,6.20
2019-06-01T04:09:01.470Z,6.08
2019-06-01T04:11:30.574Z,6.37
2019-06-01T04:13:59.166Z,6.55
2019-06-01T04:16:27.672Z,6.72
2019-06-01T04:18:56.116Z,6.90
2019-06-01T04:21:24.593Z,6.60
2019-06-01T04:23:53.222Z,6.78
2019-06-01T04:26:21.791Z,6.42
2019-06-01T04:28:50.247Z,7.10
2019-06-01T04:31:18.727Z,8.10
2019-06-01T04:33:47.244Z,7.50
2019-06-01T04:36:15.796Z,7.12
2019-06-01T04:38:45.025Z,6.97
2019-06-01T04:41:14.144Z,7.15
2019-06-01T04:43:42.813Z,7.55
2019-06-01T04:46:12.327Z,8.10
2019-06-01T04:48:40.954Z,7.90
2019-06-01T04:51:11.402Z,8.30
2019-06-01T04:53:39.676Z,7.97
2019-06-01T04:56:09.062Z,8.20
2019-06-01T04:58:37.832Z,8.13
2019-06-01T05:01:06.906Z,8.45
2019-06-01T05:03:35.626Z,8.60
2019-06-01T05:06:05.019Z,7.93
2019-06-01T05:08:33.755Z,8.17
2019-06-01T05:11:05.258Z,9.03
2019-06-01T05:13:32.556Z,8.30
2019-06-01T05:16:01.018Z,8.00
2019-06-01T05:18:29.556Z,8.90
2019-06-01T05:20:58.847Z,8.33
2019-06-01T05:23:28.573Z,8.83
2019-06-01T05:25:57.467Z,8.30
2019-06-01T05:28:26.157Z,8.90
2019-06-01T05:30:54.760Z,8.23
2019-06-01T05:33:36.497Z,9.30
2019-06-01T05:35:53.640Z,8.43
2019-06-01T05:38:22.181Z,9.45
2019-06-01T05:40:50.637Z,8.98
2019-06-01T05:43:29.854Z,9.15
2019-06-01T05:46:01.510Z,10.88
2019-06-01T05:48:34.224Z,9.20
2019-06-01T05:51:02.761Z,9.35
2019-06-01T05:53:31.244Z,9.10
2019-06-01T05:56:01.538Z,8.83
2019-06-01T05:58:30.477Z,8.70
2019-06-01T06:00:59.786Z,8.98
2019-06-01T06:03:40.050Z,9.60
2019-06-01T06:06:01.022Z,9.60
2019-06-01T06:08:29.482Z,10.08
2019-06-01T06:10:58.097Z,9.20
2019-06-01T06:13:26.594Z,9.70
2019-06-01T06:15:55.055Z,9.93
2019-06-01T06:18:23.629Z,12.40
2019-06-01T06:20:52.223Z,9.55
2019-06-01T06:23:21.164Z,11.15
2019-06-01T06:25:49.749Z,9.90
2019-06-01T06:28:18.793Z,9.45
2019-06-01T06:30:47.643Z,9.90
2019-06-01T06:33:17.287Z,8.70
2019-06-01T06:35:45.897Z,10.32
2019-06-01T06:38:15.594Z,9.60
2019-06-01T06:40:45.300Z,10.38
2019-06-01T06:43:22.362Z,10.38
2019-06-01T06:45:44.385Z,10.10
2019-06-01T06:48:12.943Z,10.05
2019-06-01T06:50:44.048Z,10.32
2019-06-01T06:53:25.466Z,10.50
2019-06-01T06:55:43.965Z,9.03
2019-06-01T06:58:12.745Z,9.73
2019-06-01T07:00:41.360Z,9.63
2019-06-01T07:03:10.600Z,9.75
2019-06-01T07:05:40.058Z,9.13
2019-06-01T07:08:09.520Z,9.15
2019-06-01T07:10:38.728Z,10.93
2019-06-01T07:13:08.278Z,9.23
2019-06-01T07:15:36.861Z,9.48
2019-06-01T07:18:05.458Z,9.78
2019-06-01T07:20:34.404Z,9.85
2019-06-01T07:23:03.022Z,9.15
2019-06-01T07:25:31.578Z,9.20
2019-06-01T07:28:00.137Z,8.43
2019-06-01T07:30:28.678Z,9.18
2019-06-01T07:32:57.322Z,8.63
2019-06-01T07:35:26.381Z,7.83
2019-06-01T07:37:55.198Z,7.90
2019-06-01T07:40:24.828Z,7.45
2019-06-01T07:42:53.492Z,7.70
2019-06-01T07:45:22.886Z,8.93
2019-06-01T07:47:52.673Z,7.17
2019-06-01T07:50:21.866Z,7.00
2019-06-01T07:52:51.541Z,6.92
2019-06-01T07:55:21.390Z,7.20
2019-06-01T07:57:50.198Z,7.55
2019-06-01T08:00:20.987Z,7.08
2019-06-01T08:02:50.261Z,6.87
2019-06-01T08:05:19.843Z,6.50
2019-06-01T08:07:48.404Z,6.85
2019-06-01T08:10:17.237Z,6.15
2019-06-01T08:12:47.132Z,5.97
2019-06-01T08:15:17.978Z,5.80
2019-06-01T08:17:46.741Z,6.10
2019-06-01T08:20:15.334Z,6.78
2019-06-01T08:22:43.873Z,6.33
2019-06-01T08:25:13.107Z,6.45
2019-06-01T08:27:41.754Z,5.92
2019-06-01T08:30:11.120Z,6.45
2019-06-01T08:32:40.717Z,6.35
2019-06-01T08:35:09.828Z,6.05
2019-06-01T08:37:38.573Z,6.08
2019-06-01T08:40:07.281Z,5.03
2019-06-01T08:42:35.816Z,5.20
2019-06-01T08:45:04.754Z,6.03
2019-06-01T08:47:34.054Z,5.60
2019-06-01T08:50:02.851Z,6.22
2019-06-01T08:52:32.224Z,5.12
2019-06-01T08:55:00.921Z,6.65
2019-06-01T08:57:30.366Z,4.93
2019-06-01T08:59:59.009Z,4.50
2019-06-01T09:02:28.969Z,6.17
2019-06-01T09:04:57.639Z,4.75
2019-06-01T09:07:26.860Z,4.80
2019-06-01T09:09:55.475Z,4.70
2019-06-01T09:12:25.102Z,4.72
2019-06-01T09:14:53.875Z,4.25
2019-06-01T09:17:22.447Z,5.03
2019-06-01T09:19:50.956Z,3.52
2019-06-01T09:22:19.446Z,3.60
2019-06-01T09:24:47.961Z,3.70
2019-06-01T09:27:16.520Z,4.55
2019-06-01T09:29:45.120Z,3.75
2019-06-01T09:32:13.620Z,4.87
2019-06-01T09:34:42.095Z,3.50
2019-06-01T09:37:10.529Z,3.35
2019-06-01T09:39:39.131Z,6.37
2019-06-01T09:42:07.691Z,4.78
2019-06-01T09:44:37.385Z,5.00
2019-06-01T09:47:06.168Z,4.30
2019-06-01T09:49:35.814Z,4.80
2019-06-01T09:52:04.706Z,5.17
2019-06-01T09:54:34.559Z,4.37
2019-06-01T09:57:03.664Z,4.00
2019-06-01T09:59:32.227Z,4.22
2019-06-01T10:02:00.678Z,3.70
2019-06-01T10:04:30.196Z,4.30
2019-06-01T10:06:58.758Z,3.60
2019-06-01T10:09:27.390Z,3.37
2019-06-01T10:11:55.971Z,3.60
2019-06-01T10:14:24.578Z,3.52
2019-06-01T10:16:53.154Z,3.65
2019-06-01T10:19:21.677Z,3.05
2019-06-01T10:21:50.225Z,3.10
2019-06-01T10:24:18.797Z,3.40
2019-06-01T10:26:47.282Z,3.33
2019-06-01T10:29:16.825Z,4.75
2019-06-01T10:31:46.470Z,3.30
2019-06-01T10:34:15.010Z,3.27
2019-06-01T10:36:43.551Z,2.95
2019-06-01T10:39:12.100Z,3.02
2019-06-01T10:41:41.557Z,3.02
2019-06-01T10:44:10.291Z,3.02
2019-06-01T10:46:40.154Z,3.25
2019-06-01T10:49:08.876Z,3.10
2019-06-01T10:51:38.270Z,3.30
2019-06-01T10:54:07.080Z,3.27
2019-06-01T10:56:36.251Z,6.33
2019-06-01T10:59:05.086Z,3.60
2019-06-01T11:01:34.685Z,3.12
2019-06-01T11:04:04.101Z,3.98
2019-06-01T11:06:37.677Z,2.60
2019-06-01T11:09:03.345Z,3.00
2019-06-01T11:11:32.726Z,2.62
2019-06-01T11:14:01.339Z,3.02
2019-06-01T11:16:29.905Z,3.52
2019-06-01T11:18:58.490Z,2.50
2019-06-01T11:21:27.046Z,2.62
2019-06-01T11:23:55.611Z,3.23
2019-06-01T11:26:24.142Z,5.65
2019-06-01T11:28:52.750Z,3.17
2019-06-01T11:31:21.237Z,2.85
2019-06-01T11:33:49.771Z,3.15
2019-06-01T11:36:18.267Z,2.80
2019-06-01T11:38:46.854Z,2.70
2019-06-01T11:41:18.460Z,2.77
2019-06-01T11:43:46.067Z,2.70
2019-06-01T11:46:14.766Z,2.40
2019-06-01T11:48:43.523Z,2.22
2019-06-01T11:51:12.230Z,3.25
2019-06-01T11:53:41.503Z,2.30
2019-06-01T11:56:10.410Z,5.50
2019-06-01T11:58:39.252Z,3.15
2019-06-01T12:01:07.846Z,2.92
2019-06-01T12:03:37.543Z,2.90
2019-06-01T12:06:06.289Z,2.67
2019-06-01T12:08:35.974Z,2.35
2019-06-01T12:11:04.640Z,2.27
2019-06-01T12:13:33.118Z,2.62
2019-06-01T12:16:01.577Z,2.50
2019-06-01T12:18:30.107Z,2.25
2019-06-01T12:20:58.625Z,2.22
2019-06-01T12:23:27.125Z,2.10
2019-06-01T12:25:55.657Z,2.20
2019-06-01T12:28:24.166Z,2.42
2019-06-01T12:30:52.689Z,3.33
2019-06-01T12:33:21.238Z,2.00
2019-06-01T12:35:49.818Z,3.00
2019-06-01T12:38:18.366Z,2.27
2019-06-01T12:40:47.395Z,2.02
2019-06-01T12:43:16.125Z,1.97
2019-06-01T12:45:45.768Z,1.85
2019-06-01T12:48:14.460Z,2.42
2019-06-01T12:50:46.739Z,1.80
2019-06-01T12:53:13.310Z,1.77
2019-06-01T12:55:42.638Z,2.10
2019-06-01T12:58:11.263Z,1.70
2019-06-01T13:00:40.366Z,1.60
2019-06-01T13:03:08.976Z,1.85
2019-06-01T13:05:37.542Z,1.95
2019-06-01T13:08:06.119Z,1.80
2019-06-01T13:10:34.661Z,1.60
2019-06-01T13:13:03.178Z,2.20
2019-06-01T13:15:31.946Z,1.62
2019-06-01T13:18:00.568Z,1.85
2019-06-01T13:20:29.179Z,2.35
2019-06-01T13:22:57.835Z,1.97
2019-06-01T13:25:26.535Z,1.77
2019-06-01T13:27:55.034Z,1.60
2019-06-01T13:30:23.591Z,1.80
2019-06-01T13:32:52.745Z,3.17
2019-06-01T13:35:21.507Z,1.60
2019-06-01T13:37:50.944Z,1.90
2019-06-01T13:40:20.430Z,2.80
2019-06-01T13:42:49.174Z,2.17
2019-06-01T13:45:18.022Z,2.00
2019-06-01T13:47:47.653Z,3.15
2019-06-01T13:50:17.278Z,1.80
2019-06-01T13:52:45.895Z,2.20
2019-06-01T13:55:14.548Z,2.98
2019-06-01T13:57:44.182Z,1.57
2019-06-01T14:00:15.830Z,2.60
2019-06-01T14:02:48.599Z,1.98
2019-06-01T14:05:13.878Z,2.02
2019-06-01T14:07:42.462Z,1.65
2019-06-01T14:10:11.176Z,2.20
2019-06-01T14:12:39.682Z,2.17
2019-06-01T14:15:08.407Z,1.90
2019-06-01T14:17:37.036Z,2.08
2019-06-01T14:20:05.640Z,1.90
2019-06-01T14:22:35.175Z,1.90
2019-06-01T14:25:12.744Z,2.55
2019-06-01T14:27:34.156Z,2.05
2019-06-01T14:30:02.774Z,4.17
2019-06-01T14:32:31.375Z,2.00
2019-06-01T14:34:59.959Z,2.80
2019-06-01T14:37:28.446Z,1.70
2019-06-01T14:39:57.134Z,2.80
2019-06-01T14:42:25.928Z,1.80
2019-06-01T14:44:54.377Z,1.98
2019-06-01T14:47:22.891Z,2.37
2019-06-01T14:49:53.551Z,1.60
2019-06-01T14:52:22.231Z,2.30
2019-06-01T14:54:51.793Z,2.55
2019-06-01T14:57:20.522Z,2.00
2019-06-01T14:59:50.415Z,2.15
2019-06-01T15:02:19.213Z,2.83
2019-06-01T15:04:48.246Z,2.12
2019-06-01T15:07:16.966Z,3.35
2019-06-01T15:09:45.526Z,7.08
2019-06-01T15:12:14.091Z,2.05
2019-06-01T15:14:42.696Z,3.98
2019-06-01T15:17:11.196Z,1.95
2019-06-01T15:19:39.762Z,3.75
2019-06-01T15:22:08.415Z,2.50
2019-06-01T15:24:36.935Z,8.15
2019-06-01T15:27:06.719Z,5.97
2019-06-01T15:29:35.303Z,2.17
2019-06-01T15:32:03.764Z,3.37
2019-06-01T15:34:32.338Z,2.30
2019-06-01T15:37:01.859Z,2.45
2019-06-01T15:39:30.495Z,3.95
2019-06-01T15:41:59.212Z,2.97
2019-06-01T15:44:27.912Z,2.33
2019-06-01T15:46:57.724Z,3.37
2019-06-01T15:49:26.335Z,1.90
2019-06-01T15:51:55.814Z,4.95
2019-06-01T15:54:27.474Z,7.00
2019-06-01T15:56:56.467Z,2.03
2019-06-01T15:59:25.081Z,2.40
2019-06-01T16:01:54.981Z,2.50
2019-06-01T16:04:23.626Z,2.47
2019-06-01T16:06:53.058Z,3.13
2019-06-01T16:09:21.819Z,2.27
2019-06-01T16:11:50.818Z,1.93
2019-06-01T16:14:19.367Z,3.43
2019-06-01T16:16:48.698Z,2.40
2019-06-01T16:19:17.190Z,2.10
2019-06-01T16:21:45.802Z,3.07
2019-06-01T16:24:14.612Z,2.87
2019-06-01T16:26:43.105Z,2.47
2019-06-01T16:29:11.592Z,3.87
2019-06-01T16:31:40.079Z,6.30
2019-06-01T16:34:08.585Z,2.03
2019-06-01T16:36:37.063Z,3.10
2019-06-01T16:39:08.097Z,2.27
2019-06-01T16:41:37.809Z,2.40
2019-06-01T16:44:06.363Z,2.30
2019-06-01T16:46:34.935Z,2.03
2019-06-01T16:49:03.702Z,1.87
2019-06-01T16:51:50.070Z,3.23
2019-06-01T16:54:18.553Z,1.90
2019-06-01T16:56:47.098Z,2.33
2019-06-01T16:59:15.582Z,1.77
2019-06-01T17:01:44.211Z,1.87
2019-06-01T17:04:12.787Z,2.20
2019-06-01T17:06:41.346Z,2.27
2019-06-01T17:09:10.177Z,2.27
2019-06-01T17:11:38.959Z,4.03
2019-06-01T17:14:07.519Z,3.80
2019-06-01T17:16:36.089Z,1.77
2019-06-01T17:19:05.164Z,2.83
2019-06-01T17:21:33.944Z,3.20
2019-06-01T17:24:02.529Z,1.90
2019-06-01T17:26:31.073Z,1.80
2019-06-01T17:29:00.091Z,9.67
2019-06-01T18:28:13.240Z,2.77
2019-06-01T18:30:37.875Z,4.42
2019-06-01T18:33:07.121Z,2.60
2019-06-01T18:35:35.885Z,3.50
2019-06-01T18:38:05.587Z,2.05
2019-06-01T18:40:34.542Z,2.33
2019-06-01T18:43:05.950Z,2.37
2019-06-01T18:45:34.912Z,3.40
2019-06-01T18:48:04.122Z,3.20
2019-06-01T18:50:32.872Z,2.90
2019-06-01T18:53:01.501Z,2.90
2019-06-01T18:55:30.004Z,4.25
2019-06-01T18:58:00.027Z,3.77
2019-06-01T19:00:28.645Z,4.22
2019-06-01T19:02:57.325Z,4.15
2019-06-01T19:05:25.941Z,3.30
2019-06-01T19:07:54.599Z,3.47
2019-06-01T19:10:23.167Z,4.20
2019-06-01T19:12:51.767Z,3.42
2019-06-01T19:15:28.279Z,4.00
2019-06-01T19:17:50.773Z,3.15
2019-06-01T19:20:19.382Z,3.00
2019-06-01T19:22:48.001Z,3.70
2019-06-01T19:25:16.962Z,3.85
2019-06-01T19:27:45.760Z,2.72
2019-06-01T19:30:15.091Z,4.58
2019-06-01T19:32:43.790Z,3.50
2019-06-01T19:35:13.581Z,3.98
2019-06-01T19:37:42.818Z,2.92
2019-06-01T19:40:11.798Z,4.10
2019-06-01T19:42:40.463Z,2.55
2019-06-01T19:45:23.502Z,3.12
2019-06-01T19:47:39.330Z,3.47
2019-06-01T19:50:08.243Z,3.08
2019-06-01T19:52:37.007Z,3.50
2019-06-01T19:55:05.593Z,3.10
2019-06-01T19:57:34.424Z,3.20
2019-06-01T20:00:03.040Z,3.55
2019-06-01T20:02:33.969Z,4.45
2019-06-01T20:05:02.005Z,3.37
2019-06-01T20:07:30.577Z,4.62
2019-06-01T20:09:59.123Z,5.12
2019-06-01T20:12:27.658Z,3.35
2019-06-01T20:14:57.290Z,4.13
2019-06-01T20:17:26.601Z,5.60
2019-06-01T20:19:55.420Z,3.98
2019-06-01T20:22:24.015Z,5.12
2019-06-01T20:24:52.621Z,4.00
2019-06-01T20:27:21.666Z,5.10
2019-06-01T20:29:50.465Z,5.10
2019-06-01T20:32:20.027Z,4.50
2019-06-01T20:34:48.655Z,5.30
2019-06-01T20:37:18.091Z,5.40
2019-06-01T20:39:46.954Z,5.12
2019-06-01T20:42:23.317Z,5.60
2019-06-01T20:44:45.802Z,6.08
2019-06-01T20:47:14.838Z,5.50
2019-06-01T20:49:43.438Z,6.05
2019-06-01T20:52:12.697Z,4.53
2019-06-01T20:54:41.523Z,4.92
2019-06-01T20:57:10.191Z,5.03
2019-06-01T20:59:38.751Z,4.58
2019-06-01T21:02:07.575Z,4.47
2019-06-01T21:04:36.221Z,5.80
2019-06-01T21:07:04.866Z,5.33
2019-06-01T21:09:33.540Z,6.10
2019-06-01T21:12:02.077Z,5.87
2019-06-01T21:14:30.600Z,5.22
2019-06-01T21:16:59.178Z,5.35
2019-06-01T21:19:28.207Z,4.58
2019-06-01T21:21:56.846Z,4.85
2019-06-01T21:24:25.409Z,6.92
2019-06-01T21:26:54.031Z,4.90
2019-06-01T21:29:23.018Z,4.33
2019-06-01T21:31:51.631Z,4.50
2019-06-01T21:34:20.957Z,6.90
2019-06-01T21:36:50.344Z,5.40
2019-06-01T21:39:19.619Z,5.58
2019-06-01T21:41:48.396Z,7.28
2019-06-01T21:44:17.432Z,4.80
2019-06-01T21:46:46.406Z,4.65
2019-06-01T21:49:15.588Z,4.65
2019-06-01T21:51:44.278Z,5.05
2019-06-01T21:54:12.858Z,4.87
2019-06-01T21:56:41.390Z,5.35
2019-06-01T21:59:09.953Z,5.33
2019-06-01T22:01:38.551Z,6.77
2019-06-01T22:04:07.125Z,4.50
2019-06-01T22:06:35.761Z,6.10
2019-06-01T22:09:06.087Z,4.92
2019-06-01T22:11:34.721Z,8.30
2019-06-01T22:14:03.226Z,6.05
2019-06-01T22:16:31.827Z,5.28
2019-06-01T22:19:00.407Z,5.65
2019-06-01T22:21:28.903Z,6.28
2019-06-01T22:23:57.534Z,6.92
2019-06-01T22:26:26.383Z,6.28
2019-06-01T22:28:54.953Z,6.47
2019-06-01T22:31:24.598Z,6.92
2019-06-01T22:33:53.238Z,6.30
2019-06-01T22:36:22.606Z,6.78
2019-06-01T22:38:51.208Z,9.45
2019-06-01T22:41:19.951Z,6.78
2019-06-01T22:43:48.590Z,6.72
2019-06-01T22:46:17.076Z,8.40
2019-06-01T22:48:45.606Z,7.33
2019-06-01T22:51:14.121Z,7.83
2019-06-01T22:53:42.601Z,7.17
2019-06-01T22:56:11.174Z,7.00
2019-06-01T22:58:39.622Z,7.95
2019-06-01T23:01:09.248Z,7.75
2019-06-01T23:03:37.801Z,8.70
2019-06-01T23:06:06.334Z,8.05
2019-06-01T23:08:34.897Z,8.00
2019-06-01T23:11:03.433Z,7.70
2019-06-01T23:13:32.449Z,7.80
2019-06-01T23:16:02.026Z,8.28
2019-06-01T23:18:30.499Z,8.18
2019-06-01T23:20:59.201Z,7.80
2019-06-01T23:23:28.062Z,7.80
2019-06-01T23:25:56.751Z,7.47
2019-06-01T23:28:26.248Z,8.00
2019-06-01T23:30:54.849Z,7.03
2019-06-01T23:33:24.735Z,8.70
2019-06-01T23:35:53.418Z,9.70
2019-06-01T23:38:22.552Z,8.63
2019-06-01T23:40:51.328Z,7.53
2019-06-01T23:43:19.801Z,11.03
2019-06-01T23:45:48.337Z,7.47
2019-06-01T23:48:16.870Z,8.00
2019-06-01T23:50:46.510Z,8.70
2019-06-01T23:53:15.073Z,8.88
2019-06-01T23:55:43.644Z,9.33
2019-06-01T23:58:12.163Z,7.90
